sensor_id;sensor_type;location;lat;lon;timestamp;temperature;humidity
23475;DHT22;11910;52.086;21.066;2023-03-01T00:01:48;-2.90;92.90
23475;DHT22;11910;52.086;21.066;2023-03-01T00:04:13;-2.90;93.00
23475;DHT22;11910;52.086;21.066;2023-03-01T00:06:39;-2.90;93.00
23475;DHT22;11910;52.086;21.066;2023-03-01T00:09:05;-3.00;93.00
23475;DHT22;11910;52.086;21.066;2023-03-01T00:11:32;-3.00;93.20
23475;DHT22;11910;52.086;21.066;2023-03-01T00:14:00;-3.00;93.40
23475;DHT22;11910;52.086;21.066;2023-03-01T00:16:29;-3.10;93.90
23475;DHT22;11910;52.086;21.066;2023-03-01T00:18:56;-3.10;94.20
23475;DHT22;11910;52.086;21.066;2023-03-01T00:21:23;-3.10;93.90
23475;DHT22;11910;52.086;21.066;2023-03-01T00:23:49;-3.10;93.80
23475;DHT22;11910;52.086;21.066;2023-03-01T00:26:16;-3.00;93.80
23475;DHT22;11910;52.086;21.066;2023-03-01T00:28:42;-3.00;94.00
23475;DHT22;11910;52.086;21.066;2023-03-01T00:31:10;-3.00;93.90
23475;DHT22;11910;52.086;21.066;2023-03-01T00:33:36;-3.00;93.40
23475;DHT22;11910;52.086;21.066;2023-03-01T00:36:02;-3.00;93.10
23475;DHT22;11910;52.086;21.066;2023-03-01T00:38:28;-2.90;93.40
23475;DHT22;11910;52.086;21.066;2023-03-01T00:40:54;-2.90;93.40
23475;DHT22;11910;52.086;21.066;2023-03-01T00:43:19;-2.90;93.30
23475;DHT22;11910;52.086;21.066;2023-03-01T00:45:45;-2.90;93.30
23475;DHT22;11910;52.086;21.066;2023-03-01T00:48:10;-3.00;93.50
23475;DHT22;11910;52.086;21.066;2023-03-01T00:50:36;-3.00;93.70
23475;DHT22;11910;52.086;21.066;2023-03-01T00:53:02;-3.00;94.00
23475;DHT22;11910;52.086;21.066;2023-03-01T00:55:27;-3.00;93.40
23475;DHT22;11910;52.086;21.066;2023-03-01T00:57:53;-3.00;93.50
23475;DHT22;11910;52.086;21.066;2023-03-01T01:00:19;-3.00;93.70
23475;DHT22;11910;52.086;21.066;2023-03-01T01:02:45;-2.90;93.90
23475;DHT22;11910;52.086;21.066;2023-03-01T01:05:11;-2.90;93.20
23475;DHT22;11910;52.086;21.066;2023-03-01T01:07:37;-2.90;93.30
23475;DHT22;11910;52.086;21.066;2023-03-01T01:10:03;-2.80;93.50
23475;DHT22;11910;52.086;21.066;2023-03-01T01:12:29;-2.90;93.50
23475;DHT22;11910;52.086;21.066;2023-03-01T01:14:54;-2.90;93.40
23475;DHT22;11910;52.086;21.066;2023-03-01T01:17:20;-2.90;93.40
23475;DHT22;11910;52.086;21.066;2023-03-01T01:19:46;-2.90;93.40
23475;DHT22;11910;52.086;21.066;2023-03-01T01:22:11;-2.90;93.20
23475;DHT22;11910;52.086;21.066;2023-03-01T01:24:37;-2.90;93.10
23475;DHT22;11910;52.086;21.066;2023-03-01T01:27:02;-2.90;93.00
23475;DHT22;11910;52.086;21.066;2023-03-01T01:29:28;-2.90;92.90
23475;DHT22;11910;52.086;21.066;2023-03-01T01:31:54;-3.00;93.10
23475;DHT22;11910;52.086;21.066;2023-03-01T01:34:21;-3.00;93.40
23475;DHT22;11910;52.086;21.066;2023-03-01T01:36:51;-3.00;93.20
23475;DHT22;11910;52.086;21.066;2023-03-01T01:39:19;-3.00;93.40
23475;DHT22;11910;52.086;21.066;2023-03-01T01:41:45;-3.00;93.60
23475;DHT22;11910;52.086;21.066;2023-03-01T01:46:40;-3.00;93.70
23475;DHT22;11910;52.086;21.066;2023-03-01T01:52:29;-3.00;93.50
23475;DHT22;11910;52.086;21.066;2023-03-01T01:55:08;-3.00;92.80
23475;DHT22;11910;52.086;21.066;2023-03-01T01:57:55;-3.00;93.10
23475;DHT22;11910;52.086;21.066;2023-03-01T02:00:27;-3.00;93.50
23475;DHT22;11910;52.086;21.066;2023-03-01T02:03:06;-3.00;93.60
23475;DHT22;11910;52.086;21.066;2023-03-01T02:05:38;-3.00;93.50
23475;DHT22;11910;52.086;21.066;2023-03-01T02:08:06;-3.10;93.70
23475;DHT22;11910;52.086;21.066;2023-03-01T02:10:34;-3.10;94.00
23475;DHT22;11910;52.086;21.066;2023-03-01T02:13:01;-3.10;94.10
23475;DHT22;11910;52.086;21.066;2023-03-01T02:15:32;-3.00;93.90
23475;DHT22;11910;52.086;21.066;2023-03-01T02:17:58;-3.10;93.90
23475;DHT22;11910;52.086;21.066;2023-03-01T02:23:14;-3.00;93.70
23475;DHT22;11910;52.086;21.066;2023-03-01T02:26:10;-3.00;93.90
23475;DHT22;11910;52.086;21.066;2023-03-01T02:28:40;-3.00;93.80
23475;DHT22;11910;52.086;21.066;2023-03-01T02:31:09;-3.00;93.90
23475;DHT22;11910;52.086;21.066;2023-03-01T02:33:54;-3.00;93.30
23475;DHT22;11910;52.086;21.066;2023-03-01T02:36:28;-3.00;93.30
23475;DHT22;11910;52.086;21.066;2023-03-01T02:38:58;-3.00;93.50
23475;DHT22;11910;52.086;21.066;2023-03-01T02:41:26;-3.00;93.30
23475;DHT22;11910;52.086;21.066;2023-03-01T02:43:53;-3.00;93.60
23475;DHT22;11910;52.086;21.066;2023-03-01T02:46:24;-3.00;93.70
23475;DHT22;11910;52.086;21.066;2023-03-01T02:48:55;-3.00;94.10
23475;DHT22;11910;52.086;21.066;2023-03-01T02:51:54;-3.10;94.10
23475;DHT22;11910;52.086;21.066;2023-03-01T02:54:25;-3.10;93.90
23475;DHT22;11910;52.086;21.066;2023-03-01T02:56:53;-3.10;94.00
23475;DHT22;11910;52.086;21.066;2023-03-01T02:59:21;-3.10;94.10
23475;DHT22;11910;52.086;21.066;2023-03-01T03:01:47;-3.00;93.70
23475;DHT22;11910;52.086;21.066;2023-03-01T03:04:16;-3.00;93.80
23475;DHT22;11910;52.086;21.066;2023-03-01T03:06:45;-3.00;93.60
23475;DHT22;11910;52.086;21.066;2023-03-01T03:09:12;-3.00;93.60
23475;DHT22;11910;52.086;21.066;2023-03-01T03:11:38;-3.00;93.90
23475;DHT22;11910;52.086;21.066;2023-03-01T03:14:07;-3.00;93.80
23475;DHT22;11910;52.086;21.066;2023-03-01T03:16:40;-3.00;94.10
23475;DHT22;11910;52.086;21.066;2023-03-01T03:19:05;-3.10;94.20
23475;DHT22;11910;52.086;21.066;2023-03-01T03:21:32;-3.10;94.70
23475;DHT22;11910;52.086;21.066;2023-03-01T03:23:58;-3.10;94.90
23475;DHT22;11910;52.086;21.066;2023-03-01T03:26:24;-3.10;95.20
23475;DHT22;11910;52.086;21.066;2023-03-01T03:28:50;-3.10;94.70
23475;DHT22;11910;52.086;21.066;2023-03-01T03:31:15;-3.00;94.50
23475;DHT22;11910;52.086;21.066;2023-03-01T03:33:41;-3.00;94.60
23475;DHT22;11910;52.086;21.066;2023-03-01T03:36:07;-3.00;94.50
23475;DHT22;11910;52.086;21.066;2023-03-01T03:38:38;-3.00;94.60
23475;DHT22;11910;52.086;21.066;2023-03-01T03:41:06;-3.00;94.70
23475;DHT22;11910;52.086;21.066;2023-03-01T03:43:34;-3.10;94.50
23475;DHT22;11910;52.086;21.066;2023-03-01T03:46:00;-3.10;95.30
23475;DHT22;11910;52.086;21.066;2023-03-01T03:48:33;-3.00;95.10
23475;DHT22;11910;52.086;21.066;2023-03-01T03:50:59;-3.00;94.90
23475;DHT22;11910;52.086;21.066;2023-03-01T03:53:27;-2.90;94.70
23475;DHT22;11910;52.086;21.066;2023-03-01T03:55:53;-2.90;94.80
23475;DHT22;11910;52.086;21.066;2023-03-01T03:58:21;-2.90;95.00
23475;DHT22;11910;52.086;21.066;2023-03-01T04:00:50;-2.90;95.10
23475;DHT22;11910;52.086;21.066;2023-03-01T04:03:17;-2.90;94.40
23475;DHT22;11910;52.086;21.066;2023-03-01T04:05:44;-2.90;94.40
23475;DHT22;11910;52.086;21.066;2023-03-01T04:08:10;-2.90;94.60
23475;DHT22;11910;52.086;21.066;2023-03-01T04:10:37;-2.90;94.50
23475;DHT22;11910;52.086;21.066;2023-03-01T04:13:05;-2.90;94.50
23475;DHT22;11910;52.086;21.066;2023-03-01T04:15:33;-2.90;94.80
23475;DHT22;11910;52.086;21.066;2023-03-01T04:17:59;-2.80;94.60
23475;DHT22;11910;52.086;21.066;2023-03-01T04:20:27;-2.80;94.60
23475;DHT22;11910;52.086;21.066;2023-03-01T04:23:04;-2.90;94.40
23475;DHT22;11910;52.086;21.066;2023-03-01T04:25:44;-2.80;94.60
23475;DHT22;11910;52.086;21.066;2023-03-01T04:28:10;-2.90;94.70
23475;DHT22;11910;52.086;21.066;2023-03-01T04:30:37;-2.90;94.70
23475;DHT22;11910;52.086;21.066;2023-03-01T04:33:05;-2.80;94.60
23475;DHT22;11910;52.086;21.066;2023-03-01T04:35:31;-2.80;94.30
23475;DHT22;11910;52.086;21.066;2023-03-01T04:37:57;-2.80;94.50
23475;DHT22;11910;52.086;21.066;2023-03-01T04:40:22;-2.80;94.70
23475;DHT22;11910;52.086;21.066;2023-03-01T04:42:48;-2.80;94.80
23475;DHT22;11910;52.086;21.066;2023-03-01T04:45:13;-2.90;95.50
23475;DHT22;11910;52.086;21.066;2023-03-01T04:47:43;-2.80;95.60
23475;DHT22;11910;52.086;21.066;2023-03-01T04:50:14;-2.70;95.90
23475;DHT22;11910;52.086;21.066;2023-03-01T04:52:40;-2.70;95.20
23475;DHT22;11910;52.086;21.066;2023-03-01T04:55:06;-2.70;95.20
23475;DHT22;11910;52.086;21.066;2023-03-01T04:57:32;-2.70;95.40
23475;DHT22;11910;52.086;21.066;2023-03-01T04:59:58;-2.70;95.50
23475;DHT22;11910;52.086;21.066;2023-03-01T05:02:24;-2.60;96.30
23475;DHT22;11910;52.086;21.066;2023-03-01T05:04:49;-2.50;96.50
23475;DHT22;11910;52.086;21.066;2023-03-01T05:07:15;-2.50;96.00
23475;DHT22;11910;52.086;21.066;2023-03-01T05:09:47;-2.40;96.00
23475;DHT22;11910;52.086;21.066;2023-03-01T05:12:14;-2.40;96.00
23475;DHT22;11910;52.086;21.066;2023-03-01T05:14:40;-2.40;95.90
23475;DHT22;11910;52.086;21.066;2023-03-01T05:17:07;-2.40;95.90
23475;DHT22;11910;52.086;21.066;2023-03-01T05:19:33;-2.40;96.10
23475;DHT22;11910;52.086;21.066;2023-03-01T05:21:58;-2.40;96.00
23475;DHT22;11910;52.086;21.066;2023-03-01T05:24:27;-2.30;96.00
23475;DHT22;11910;52.086;21.066;2023-03-01T05:26:53;-2.30;95.70
23475;DHT22;11910;52.086;21.066;2023-03-01T05:29:20;-2.30;95.50
23475;DHT22;11910;52.086;21.066;2023-03-01T05:31:52;-2.30;95.60
23475;DHT22;11910;52.086;21.066;2023-03-01T05:34:19;-2.30;95.70
23475;DHT22;11910;52.086;21.066;2023-03-01T05:36:46;-2.30;95.90
23475;DHT22;11910;52.086;21.066;2023-03-01T05:39:12;-2.30;95.80
23475;DHT22;11910;52.086;21.066;2023-03-01T05:41:37;-2.20;95.80
23475;DHT22;11910;52.086;21.066;2023-03-01T05:44:03;-2.20;95.90
23475;DHT22;11910;52.086;21.066;2023-03-01T05:46:30;-2.20;95.70
23475;DHT22;11910;52.086;21.066;2023-03-01T05:48:56;-2.10;95.70
23475;DHT22;11910;52.086;21.066;2023-03-01T05:51:21;-2.10;95.80
23475;DHT22;11910;52.086;21.066;2023-03-01T05:53:47;-2.00;95.60
23475;DHT22;11910;52.086;21.066;2023-03-01T05:56:13;-2.00;95.30
23475;DHT22;11910;52.086;21.066;2023-03-01T05:58:38;-1.90;95.30
23475;DHT22;11910;52.086;21.066;2023-03-01T06:01:04;-1.90;95.40
23475;DHT22;11910;52.086;21.066;2023-03-01T06:03:29;-1.90;95.50
23475;DHT22;11910;52.086;21.066;2023-03-01T06:05:58;-1.90;95.70
23475;DHT22;11910;52.086;21.066;2023-03-01T06:08:24;-1.80;95.80
23475;DHT22;11910;52.086;21.066;2023-03-01T06:10:52;-1.80;96.20
23475;DHT22;11910;52.086;21.066;2023-03-01T06:13:17;-1.70;95.90
23475;DHT22;11910;52.086;21.066;2023-03-01T06:15:43;-1.70;95.80
23475;DHT22;11910;52.086;21.066;2023-03-01T06:18:08;-1.70;96.00
23475;DHT22;11910;52.086;21.066;2023-03-01T06:20:34;-1.60;96.20
23475;DHT22;11910;52.086;21.066;2023-03-01T06:22:59;-1.50;96.30
23475;DHT22;11910;52.086;21.066;2023-03-01T06:25:26;-1.50;96.40
23475;DHT22;11910;52.086;21.066;2023-03-01T06:27:52;-1.40;96.40
23475;DHT22;11910;52.086;21.066;2023-03-01T06:30:19;-1.30;96.40
23475;DHT22;11910;52.086;21.066;2023-03-01T06:32:45;-1.30;96.50
23475;DHT22;11910;52.086;21.066;2023-03-01T06:35:13;-1.20;96.80
23475;DHT22;11910;52.086;21.066;2023-03-01T06:37:40;-1.10;96.70
23475;DHT22;11910;52.086;21.066;2023-03-01T06:40:08;-1.00;96.20
23475;DHT22;11910;52.086;21.066;2023-03-01T06:42:39;-0.90;96.80
23475;DHT22;11910;52.086;21.066;2023-03-01T06:45:06;-0.70;96.10
23475;DHT22;11910;52.086;21.066;2023-03-01T06:47:32;-0.60;95.90
23475;DHT22;11910;52.086;21.066;2023-03-01T06:50:02;-0.50;95.90
23475;DHT22;11910;52.086;21.066;2023-03-01T06:52:28;-0.40;95.60
23475;DHT22;11910;52.086;21.066;2023-03-01T06:54:53;-0.30;95.50
23475;DHT22;11910;52.086;21.066;2023-03-01T06:57:19;-0.20;95.60
23475;DHT22;11910;52.086;21.066;2023-03-01T06:59:47;-0.10;95.40
23475;DHT22;11910;52.086;21.066;2023-03-01T07:02:13;0.00;95.30
23475;DHT22;11910;52.086;21.066;2023-03-01T07:04:40;0.10;94.90
23475;DHT22;11910;52.086;21.066;2023-03-01T07:07:06;0.20;95.00
23475;DHT22;11910;52.086;21.066;2023-03-01T07:09:32;0.30;94.90
23475;DHT22;11910;52.086;21.066;2023-03-01T07:11:57;0.40;95.20
23475;DHT22;11910;52.086;21.066;2023-03-01T07:14:23;0.50;94.50
23475;DHT22;11910;52.086;21.066;2023-03-01T07:16:52;0.60;94.50
23475;DHT22;11910;52.086;21.066;2023-03-01T07:19:18;0.70;94.20
23475;DHT22;11910;52.086;21.066;2023-03-01T07:21:44;0.80;94.10
23475;DHT22;11910;52.086;21.066;2023-03-01T07:24:10;0.90;94.10
23475;DHT22;11910;52.086;21.066;2023-03-01T07:26:36;1.00;93.70
23475;DHT22;11910;52.086;21.066;2023-03-01T07:29:04;1.10;93.50
23475;DHT22;11910;52.086;21.066;2023-03-01T07:31:30;1.20;93.70
23475;DHT22;11910;52.086;21.066;2023-03-01T07:33:56;1.30;93.10
23475;DHT22;11910;52.086;21.066;2023-03-01T07:36:23;1.40;93.00
23475;DHT22;11910;52.086;21.066;2023-03-01T07:38:51;1.50;93.20
23475;DHT22;11910;52.086;21.066;2023-03-01T07:41:17;1.60;92.90
23475;DHT22;11910;52.086;21.066;2023-03-01T07:43:43;1.70;93.10
23475;DHT22;11910;52.086;21.066;2023-03-01T07:46:08;1.70;92.50
23475;DHT22;11910;52.086;21.066;2023-03-01T07:48:34;1.80;92.10
23475;DHT22;11910;52.086;21.066;2023-03-01T07:51:01;1.90;91.70
23475;DHT22;11910;52.086;21.066;2023-03-01T07:53:27;2.00;91.90
23475;DHT22;11910;52.086;21.066;2023-03-01T07:56:09;2.20;91.90
23475;DHT22;11910;52.086;21.066;2023-03-01T07:58:42;2.30;91.60
23475;DHT22;11910;52.086;21.066;2023-03-01T08:01:12;2.50;91.40
23475;DHT22;11910;52.086;21.066;2023-03-01T08:03:40;2.80;90.80
23475;DHT22;11910;52.086;21.066;2023-03-01T08:06:08;3.10;90.30
23475;DHT22;11910;52.086;21.066;2023-03-01T08:08:35;3.40;90.20
23475;DHT22;11910;52.086;21.066;2023-03-01T08:11:02;3.70;89.40
23475;DHT22;11910;52.086;21.066;2023-03-01T08:13:34;4.00;88.30
23475;DHT22;11910;52.086;21.066;2023-03-01T08:16:04;4.10;86.10
23475;DHT22;11910;52.086;21.066;2023-03-01T08:18:33;4.20;85.90
23475;DHT22;11910;52.086;21.066;2023-03-01T08:21:09;4.30;86.30
23475;DHT22;11910;52.086;21.066;2023-03-01T08:23:38;4.30;86.20
23475;DHT22;11910;52.086;21.066;2023-03-01T08:26:16;4.30;84.80
23475;DHT22;11910;52.086;21.066;2023-03-01T08:28:44;4.40;84.90
23475;DHT22;11910;52.086;21.066;2023-03-01T08:31:23;4.60;85.50
23475;DHT22;11910;52.086;21.066;2023-03-01T08:33:51;4.80;85.60
23475;DHT22;11910;52.086;21.066;2023-03-01T08:36:24;5.00;84.00
23475;DHT22;11910;52.086;21.066;2023-03-01T08:38:50;5.20;82.60
23475;DHT22;11910;52.086;21.066;2023-03-01T08:41:17;5.20;82.50
23475;DHT22;11910;52.086;21.066;2023-03-01T08:43:42;5.10;82.50
23475;DHT22;11910;52.086;21.066;2023-03-01T08:46:11;5.00;82.70
23475;DHT22;11910;52.086;21.066;2023-03-01T08:48:40;5.10;83.00
23475;DHT22;11910;52.086;21.066;2023-03-01T08:53:41;5.30;82.50
23475;DHT22;11910;52.086;21.066;2023-03-01T08:56:07;5.50;81.80
23475;DHT22;11910;52.086;21.066;2023-03-01T08:58:33;5.70;81.30
23475;DHT22;11910;52.086;21.066;2023-03-01T09:00:59;6.00;80.70
23475;DHT22;11910;52.086;21.066;2023-03-01T09:03:32;6.20;81.00
23475;DHT22;11910;52.086;21.066;2023-03-01T09:06:02;6.40;81.50
23475;DHT22;11910;52.086;21.066;2023-03-01T09:08:28;6.70;79.80
23475;DHT22;11910;52.086;21.066;2023-03-01T09:10:54;6.90;79.10
23475;DHT22;11910;52.086;21.066;2023-03-01T09:13:22;7.10;78.10
23475;DHT22;11910;52.086;21.066;2023-03-01T09:15:52;7.30;77.40
23475;DHT22;11910;52.086;21.066;2023-03-01T09:18:18;7.50;76.70
23475;DHT22;11910;52.086;21.066;2023-03-01T09:20:43;7.70;76.00
23475;DHT22;11910;52.086;21.066;2023-03-01T09:23:16;7.90;75.90
23475;DHT22;11910;52.086;21.066;2023-03-01T09:25:44;8.10;76.10
23475;DHT22;11910;52.086;21.066;2023-03-01T09:28:10;8.10;74.80
23475;DHT22;11910;52.086;21.066;2023-03-01T09:30:38;8.10;75.20
23475;DHT22;11910;52.086;21.066;2023-03-01T09:33:04;8.20;75.20
23475;DHT22;11910;52.086;21.066;2023-03-01T09:35:30;8.40;75.40
23475;DHT22;11910;52.086;21.066;2023-03-01T09:37:55;8.40;73.60
23475;DHT22;11910;52.086;21.066;2023-03-01T09:40:23;8.70;75.00
23475;DHT22;11910;52.086;21.066;2023-03-01T09:42:59;8.90;73.50
23475;DHT22;11910;52.086;21.066;2023-03-01T09:45:35;8.70;73.30
23475;DHT22;11910;52.086;21.066;2023-03-01T09:48:03;8.70;73.40
23475;DHT22;11910;52.086;21.066;2023-03-01T09:50:35;8.70;73.40
23475;DHT22;11910;52.086;21.066;2023-03-01T09:53:09;8.80;74.00
23475;DHT22;11910;52.086;21.066;2023-03-01T09:55:48;8.90;72.50
23475;DHT22;11910;52.086;21.066;2023-03-01T09:58:54;9.10;71.90
23475;DHT22;11910;52.086;21.066;2023-03-01T10:01:58;9.20;71.40
23475;DHT22;11910;52.086;21.066;2023-03-01T10:09:38;10.60;69.80
23475;DHT22;11910;52.086;21.066;2023-03-01T10:12:10;11.10;67.00
23475;DHT22;11910;52.086;21.066;2023-03-01T10:14:48;11.40;67.20
23475;DHT22;11910;52.086;21.066;2023-03-01T10:22:43;12.80;63.40
23475;DHT22;11910;52.086;21.066;2023-03-01T10:25:23;13.30;61.30
23475;DHT22;11910;52.086;21.066;2023-03-01T10:28:05;14.10;60.70
23475;DHT22;11910;52.086;21.066;2023-03-01T10:30:37;14.40;59.10
23475;DHT22;11910;52.086;21.066;2023-03-01T10:33:17;14.30;58.90
23475;DHT22;11910;52.086;21.066;2023-03-01T10:35:49;14.40;57.90
23475;DHT22;11910;52.086;21.066;2023-03-01T10:38:16;14.70;57.60
23475;DHT22;11910;52.086;21.066;2023-03-01T10:41:06;15.30;56.20
23475;DHT22;11910;52.086;21.066;2023-03-01T10:43:54;15.80;55.10
23475;DHT22;11910;52.086;21.066;2023-03-01T10:46:31;16.10;54.20
23475;DHT22;11910;52.086;21.066;2023-03-01T10:51:32;16.60;54.30
23475;DHT22;11910;52.086;21.066;2023-03-01T10:53:57;17.40;53.30
23475;DHT22;11910;52.086;21.066;2023-03-01T10:56:27;17.20;51.60
23475;DHT22;11910;52.086;21.066;2023-03-01T11:01:24;18.00;50.70
23475;DHT22;11910;52.086;21.066;2023-03-01T11:04:11;18.00;50.50
23475;DHT22;11910;52.086;21.066;2023-03-01T11:06:40;17.80;50.30
23475;DHT22;11910;52.086;21.066;2023-03-01T11:09:29;18.20;50.60
23475;DHT22;11910;52.086;21.066;2023-03-01T11:12:02;18.90;48.40
23475;DHT22;11910;52.086;21.066;2023-03-01T11:14:38;19.40;48.70
23475;DHT22;11910;52.086;21.066;2023-03-01T11:19:40;19.10;47.70
23475;DHT22;11910;52.086;21.066;2023-03-01T11:22:21;18.80;48.20
23475;DHT22;11910;52.086;21.066;2023-03-01T11:24:49;19.00;47.80
23475;DHT22;11910;52.086;21.066;2023-03-01T11:27:28;19.20;47.50
23475;DHT22;11910;52.086;21.066;2023-03-01T11:30:18;18.80;47.50
23475;DHT22;11910;52.086;21.066;2023-03-01T11:35:37;19.20;48.30
23475;DHT22;11910;52.086;21.066;2023-03-01T11:38:22;20.00;46.60
23475;DHT22;11910;52.086;21.066;2023-03-01T11:41:29;20.20;45.70
23475;DHT22;11910;52.086;21.066;2023-03-01T11:43:57;19.50;46.60
23475;DHT22;11910;52.086;21.066;2023-03-01T11:49:07;19.70;46.20
23475;DHT22;11910;52.086;21.066;2023-03-01T11:57:38;21.30;44.60
23475;DHT22;11910;52.086;21.066;2023-03-01T12:00:40;21.60;44.00
23475;DHT22;11910;52.086;21.066;2023-03-01T12:14:06;21.30;43.80
23475;DHT22;11910;52.086;21.066;2023-03-01T12:16:40;20.70;43.90
23475;DHT22;11910;52.086;21.066;2023-03-01T12:23:05;20.90;44.20
23475;DHT22;11910;52.086;21.066;2023-03-01T12:29:02;20.90;43.90
23475;DHT22;11910;52.086;21.066;2023-03-01T12:40:38;20.80;43.90
23475;DHT22;11910;52.086;21.066;2023-03-01T12:56:29;20.90;43.90
23475;DHT22;11910;52.086;21.066;2023-03-01T12:59:04;21.30;43.10
23475;DHT22;11910;52.086;21.066;2023-03-01T13:20:47;21.50;43.20
23475;DHT22;11910;52.086;21.066;2023-03-01T13:23:28;21.80;42.70
23475;DHT22;11910;52.086;21.066;2023-03-01T13:31:02;21.60;42.60
23475;DHT22;11910;52.086;21.066;2023-03-01T13:35:57;21.10;43.40
23475;DHT22;11910;52.086;21.066;2023-03-01T13:38:55;21.00;43.70
23475;DHT22;11910;52.086;21.066;2023-03-01T13:44:26;20.80;43.40
23475;DHT22;11910;52.086;21.066;2023-03-01T13:46:57;18.90;45.60
23475;DHT22;11910;52.086;21.066;2023-03-01T13:49:28;17.70;48.00
23475;DHT22;11910;52.086;21.066;2023-03-01T13:51:55;17.00;49.20
23475;DHT22;11910;52.086;21.066;2023-03-01T13:54:31;16.10;50.40
23475;DHT22;11910;52.086;21.066;2023-03-01T13:57:00;14.90;52.90
23475;DHT22;11910;52.086;21.066;2023-03-01T13:59:26;14.30;54.10
23475;DHT22;11910;52.086;21.066;2023-03-01T14:02:00;13.80;55.30
23475;DHT22;11910;52.086;21.066;2023-03-01T14:04:28;13.20;56.50
23475;DHT22;11910;52.086;21.066;2023-03-01T14:07:21;12.60;58.10
23475;DHT22;11910;52.086;21.066;2023-03-01T14:09:56;12.20;58.90
23475;DHT22;11910;52.086;21.066;2023-03-01T14:12:52;11.70;60.40
23475;DHT22;11910;52.086;21.066;2023-03-01T14:15:19;11.40;61.70
23475;DHT22;11910;52.086;21.066;2023-03-01T14:18:20;11.30;62.00
23475;DHT22;11910;52.086;21.066;2023-03-01T14:20:46;11.30;63.20
23475;DHT22;11910;52.086;21.066;2023-03-01T14:23:37;11.20;62.70
23475;DHT22;11910;52.086;21.066;2023-03-01T14:26:04;11.80;62.00
23475;DHT22;11910;52.086;21.066;2023-03-01T14:28:31;12.70;59.60
23475;DHT22;11910;52.086;21.066;2023-03-01T14:31:00;12.80;59.20
23475;DHT22;11910;52.086;21.066;2023-03-01T14:33:31;12.10;60.30
23475;DHT22;11910;52.086;21.066;2023-03-01T14:36:13;11.60;61.70
23475;DHT22;11910;52.086;21.066;2023-03-01T14:38:45;11.10;63.60
23475;DHT22;11910;52.086;21.066;2023-03-01T14:41:25;10.70;64.90
23475;DHT22;11910;52.086;21.066;2023-03-01T14:44:11;10.40;66.20
23475;DHT22;11910;52.086;21.066;2023-03-01T14:46:41;10.00;67.30
23475;DHT22;11910;52.086;21.066;2023-03-01T14:49:20;9.80;68.20
23475;DHT22;11910;52.086;21.066;2023-03-01T14:51:53;9.70;68.90
23475;DHT22;11910;52.086;21.066;2023-03-01T14:54:31;9.40;69.10
23475;DHT22;11910;52.086;21.066;2023-03-01T14:57:03;9.20;70.00
23475;DHT22;11910;52.086;21.066;2023-03-01T14:59:29;9.10;70.40
23475;DHT22;11910;52.086;21.066;2023-03-01T15:01:57;9.10;70.90
23475;DHT22;11910;52.086;21.066;2023-03-01T15:04:30;8.90;72.30
23475;DHT22;11910;52.086;21.066;2023-03-01T15:06:57;8.90;71.50
23475;DHT22;11910;52.086;21.066;2023-03-01T15:09:32;9.00;71.90
23475;DHT22;11910;52.086;21.066;2023-03-01T15:14:56;8.70;73.00
23475;DHT22;11910;52.086;21.066;2023-03-01T15:17:37;8.60;73.60
23475;DHT22;11910;52.086;21.066;2023-03-01T15:20:17;8.40;73.70
23475;DHT22;11910;52.086;21.066;2023-03-01T15:22:46;8.40;73.80
23475;DHT22;11910;52.086;21.066;2023-03-01T15:25:26;8.20;74.30
23475;DHT22;11910;52.086;21.066;2023-03-01T15:27:54;8.10;75.00
23475;DHT22;11910;52.086;21.066;2023-03-01T15:30:35;8.00;75.40
23475;DHT22;11910;52.086;21.066;2023-03-01T15:33:41;7.90;76.00
23475;DHT22;11910;52.086;21.066;2023-03-01T15:42:11;7.50;77.70
23475;DHT22;11910;52.086;21.066;2023-03-01T15:44:41;7.30;77.80
23475;DHT22;11910;52.086;21.066;2023-03-01T15:47:28;7.30;77.90
23475;DHT22;11910;52.086;21.066;2023-03-01T15:49:54;7.30;78.50
23475;DHT22;11910;52.086;21.066;2023-03-01T15:52:29;7.10;78.90
23475;DHT22;11910;52.086;21.066;2023-03-01T15:54:59;7.00;79.20
23475;DHT22;11910;52.086;21.066;2023-03-01T15:57:25;7.00;79.50
23475;DHT22;11910;52.086;21.066;2023-03-01T15:59:54;6.90;80.60
23475;DHT22;11910;52.086;21.066;2023-03-01T16:02:24;6.80;80.00
23475;DHT22;11910;52.086;21.066;2023-03-01T16:04:52;6.80;81.10
23475;DHT22;11910;52.086;21.066;2023-03-01T16:07:19;6.70;80.70
23475;DHT22;11910;52.086;21.066;2023-03-01T16:09:44;6.60;81.00
23475;DHT22;11910;52.086;21.066;2023-03-01T16:12:14;6.50;81.10
23475;DHT22;11910;52.086;21.066;2023-03-01T16:14:40;6.40;81.30
23475;DHT22;11910;52.086;21.066;2023-03-01T16:17:06;6.40;81.80
23475;DHT22;11910;52.086;21.066;2023-03-01T16:19:33;6.30;81.90
23475;DHT22;11910;52.086;21.066;2023-03-01T16:21:59;6.20;82.20
23475;DHT22;11910;52.086;21.066;2023-03-01T16:24:24;6.10;82.70
23475;DHT22;11910;52.086;21.066;2023-03-01T16:26:51;6.00;83.10
23475;DHT22;11910;52.086;21.066;2023-03-01T16:29:19;6.00;83.50
23475;DHT22;11910;52.086;21.066;2023-03-01T16:31:44;5.90;83.80
23475;DHT22;11910;52.086;21.066;2023-03-01T16:34:10;5.80;84.00
23475;DHT22;11910;52.086;21.066;2023-03-01T16:36:36;5.80;84.40
23475;DHT22;11910;52.086;21.066;2023-03-01T16:39:02;5.80;85.50
23475;DHT22;11910;52.086;21.066;2023-03-01T16:41:28;5.70;84.70
23475;DHT22;11910;52.086;21.066;2023-03-01T16:43:54;5.70;85.00
23475;DHT22;11910;52.086;21.066;2023-03-01T16:46:24;5.60;84.40
23475;DHT22;11910;52.086;21.066;2023-03-01T16:48:51;5.60;84.60
23475;DHT22;11910;52.086;21.066;2023-03-01T16:51:20;5.50;85.10
23475;DHT22;11910;52.086;21.066;2023-03-01T16:53:54;5.40;85.00
23475;DHT22;11910;52.086;21.066;2023-03-01T16:56:22;5.30;85.40
23475;DHT22;11910;52.086;21.066;2023-03-01T16:58:48;5.20;85.50
23475;DHT22;11910;52.086;21.066;2023-03-01T17:01:15;5.10;85.50
23475;DHT22;11910;52.086;21.066;2023-03-01T17:03:41;5.10;86.00
23475;DHT22;11910;52.086;21.066;2023-03-01T17:06:09;5.00;87.00
23475;DHT22;11910;52.086;21.066;2023-03-01T17:08:35;4.90;87.50
23475;DHT22;11910;52.086;21.066;2023-03-01T17:11:05;4.90;87.60
23475;DHT22;11910;52.086;21.066;2023-03-01T17:13:30;4.80;87.30
23475;DHT22;11910;52.086;21.066;2023-03-01T17:15:56;4.70;87.50
23475;DHT22;11910;52.086;21.066;2023-03-01T17:18:22;4.60;87.50
23475;DHT22;11910;52.086;21.066;2023-03-01T17:20:47;4.50;88.10
23475;DHT22;11910;52.086;21.066;2023-03-01T17:23:13;4.40;88.30
23475;DHT22;11910;52.086;21.066;2023-03-01T17:25:45;4.30;88.20
23475;DHT22;11910;52.086;21.066;2023-03-01T17:28:11;4.20;89.10
23475;DHT22;11910;52.086;21.066;2023-03-01T17:30:38;4.10;89.10
23475;DHT22;11910;52.086;21.066;2023-03-01T17:33:06;4.10;89.30
23475;DHT22;11910;52.086;21.066;2023-03-01T17:35:31;4.00;89.50
23475;DHT22;11910;52.086;21.066;2023-03-01T17:38:01;3.90;89.20
23475;DHT22;11910;52.086;21.066;2023-03-01T17:40:27;3.80;89.30